createdAt,value
2024-04-24T07:30:52.408Z,100234.59
2024-04-24T07:40:35.414Z,100305.75
2024-04-24T07:50:18.156Z,100304.13
2024-04-24T08:00:00.599Z,100294.69
2024-04-24T08:09:43.184Z,100187.63
2024-04-24T08:19:28.051Z,100246.06
2024-04-24T08:29:10.537Z,100301.91
2024-04-24T08:38:55.859Z,100297.25
2024-04-24T08:48:43.842Z,100298.84
2024-04-24T08:58:28.298Z,100288.22
2024-04-24T09:08:12.038Z,100175.19
2024-04-24T09:17:54.935Z,100134.88
2024-04-24T09:27:37.810Z,100256.34
2024-04-24T09:37:22.741Z,100269.38
2024-04-24T09:47:06.822Z,100273.63
2024-04-24T09:56:56.099Z,100223.16
2024-04-24T10:06:44.521Z,100164.50
2024-04-24T10:16:27.948Z,100195.53
2024-04-24T10:26:11.088Z,100208.00
2024-04-24T10:35:53.910Z,100200.84
2024-04-24T10:45:45.444Z,100146.25
2024-04-24T10:55:29.509Z,100187.03
2024-04-24T11:05:14.113Z,100186.94
2024-04-24T11:14:56.601Z,100196.66
2024-04-24T11:24:40.626Z,100193.69
2024-04-24T11:34:25.250Z,100212.22
2024-04-24T11:44:08.097Z,100195.50
2024-04-24T11:53:51.644Z,100160.88
2024-04-24T12:03:35.826Z,100203.78
2024-04-24T12:13:19.685Z,100171.25
2024-04-24T12:23:03.255Z,100182.91
2024-04-24T12:32:47.274Z,100055.41
2024-04-24T12:42:29.707Z,100158.16
2024-04-24T12:52:13.072Z,100142.47
2024-04-24T13:01:55.435Z,100138.00
2024-04-24T13:11:42.154Z,100131.44
2024-04-24T13:21:25.989Z,100116.88
2024-04-24T13:31:09.054Z,100093.53
2024-04-24T13:40:51.887Z,100095.97
2024-04-24T13:50:35.452Z,100024.69
2024-04-24T14:00:18.051Z,100124.72
2024-04-24T14:10:00.470Z,100131.09
2024-04-24T14:19:43.586Z,100141.88
2024-04-24T14:29:26.282Z,100108.03
2024-04-24T14:39:10.176Z,100088.88
2024-04-24T14:48:52.635Z,100133.09
2024-04-24T14:58:37.993Z,100052.66
2024-04-24T15:08:20.739Z,100064.31
2024-04-24T15:18:04.448Z,100126.44
2024-04-24T15:27:50.520Z,100032.97
2024-04-24T15:37:37.731Z,99990.63
2024-04-24T15:47:24.577Z,100038.13
2024-04-24T15:57:12.472Z,100046.78
2024-04-24T16:06:57.793Z,100000.34
2024-04-24T16:16:40.308Z,100073.31
2024-04-24T16:26:22.611Z,99998.88
2024-04-24T16:36:09.562Z,100096.63
2024-04-24T16:45:58.311Z,100016.28
2024-04-24T16:55:41.877Z,100106.34
2024-04-24T17:05:35.710Z,100043.81
2024-04-24T17:15:21.507Z,100092.91
2024-04-24T17:25:12.424Z,100005.81
2024-04-24T17:34:55.082Z,100104.34
2024-04-24T17:44:39.100Z,100053.94
2024-04-24T17:54:27.082Z,100106.88
2024-04-24T18:04:09.753Z,100121.50
2024-04-24T18:13:52.524Z,100142.06
2024-04-24T18:23:34.900Z,100125.91
2024-04-24T18:33:18.043Z,100090.94
2024-04-24T18:43:00.864Z,100104.69
2024-04-24T18:52:44.355Z,100110.03
2024-04-24T19:02:27.073Z,100074.41
2024-04-24T19:12:09.899Z,100160.75
2024-04-24T19:21:55.181Z,100166.16
2024-04-24T19:31:38.580Z,100172.47
2024-04-24T19:41:22.631Z,100180.13
2024-04-24T19:51:09.208Z,100192.72
2024-04-24T20:01:03.968Z,100188.44
2024-04-24T20:10:55.191Z,100113.97
2024-04-24T20:20:37.562Z,100202.66
2024-04-24T20:30:20.630Z,100208.19
2024-04-24T20:40:02.981Z,100215.84
2024-04-24T20:49:45.575Z,100140.66
2024-04-24T20:59:28.027Z,100050.50
2024-04-24T21:09:11.190Z,100045.72
2024-04-24T21:18:54.055Z,100213.66
2024-04-24T21:28:37.271Z,100197.91
2024-04-24T21:38:20.039Z,100177.88
2024-04-24T21:48:04.063Z,100184.47
2024-04-24T21:57:46.642Z,100210.47
2024-04-24T22:07:30.332Z,100213.91
2024-04-24T22:18:29.398Z,100215.94
2024-04-24T22:28:17.859Z,100101.06
2024-04-24T22:38:51.449Z,100211.75
2024-04-24T22:48:34.310Z,100158.44
2024-04-24T22:58:45.172Z,100179.03
2024-04-24T23:08:27.578Z,100157.09
2024-04-24T23:18:11.716Z,100177.22
2024-04-24T23:38:29.352Z,100157.66
2024-04-24T23:48:12.369Z,100187.03
2024-04-24T23:57:56.173Z,100130.81
